• Join FlightAware (Why Join?)
  • Login
  • US Flag 
07:58PM EDT


 

Airport Tracker/Info


-or-


 

Live Flight TrackerFlight Track Log ✈ LXJ342 ✈ 22-Aug-2013 ✈ KMIA - KTLH

Flight Track Log - Related Links

Times and Time Zones

All times are in EDT time to prevent confusion due to time zone crossing. See the LXJ342 flight status page for this flight to view local times or setup timezone preferences in your user account.

Time Position Orientation Groundspeed Altitude Reporting Facility
EDT Latitude Longitude Course Direction KTS MPH feet Rate Location/Type
10:00AM 25.8025 -80.2722 81° East 169 194 900  Level Miami Center
10:00AM 25.8075 -80.2356 81° East 194 223 3,100 3,420 Climbing Miami Center
10:01AM 25.8153 -80.1689 83° East 222 255 6,500 3,000 Climbing Miami Center
10:02AM 25.8719 -80.1472 19° North 275 316 9,200 2,220 Climbing Miami Center
10:03AM 25.9086 -80.1967 310° West 296 341 10,600 2,040 Climbing Miami Center
10:04AM 25.9586 -80.2883 301° West 322 371 12,900 2,340 Climbing Miami Center
10:05AM 26.0128 -80.3822 303° West 350 403 15,300 2,580 Climbing Miami Center
10:06AM 26.0669 -80.4786 302° West 365 420 18,100 2,100 Climbing Miami Center
10:07AM 26.1247 -80.5822 302° West 377 434 19,600 1,500 Climbing Miami Center
10:08AM 26.1869 -80.6836 304° West 389 448 21,100 1,800 Climbing Miami Center
10:09AM 26.2814 -80.7492 328° Northwest 384 442 23,300 2,100 Climbing Miami Center
10:10AM 26.3836 -80.8269 326° Northwest 394 453 25,400 1,560 Climbing Miami Center
10:11AM 26.4697 -80.8878 328° Northwest 406 467 26,500 840 Climbing Miami Center
10:12AM 26.5822 -80.9683 327° Northwest 427 491 27,100 720 Climbing Miami Center
10:13AM 26.6744 -81.0367 326° Northwest 438 504 28,000 4,440 Climbing Miami Center
10:14AM 26.7908 -81.1222 327° Northwest 446 513 36,000 540 Climbing Miami Center
10:15AM 26.8992 -81.2006 327° Northwest 456 525 29,100 -2,400 Descending Miami Center
10:16AM 27.0033 -81.2792 326° Northwest 450 518 31,200 1,800 Climbing Miami Center
10:17AM 27.1033 -81.3553 326° Northwest 440 506 32,700 1,380 Climbing Miami Center
10:18AM 27.1911 -81.4192 327° Northwest 426 490 34,000 1,200 Climbing Miami Center
10:19AM 27.2889 -81.4931 326° Northwest 426 490 35,200 960 Climbing Miami Center
10:20AM 27.3928 -81.5697 327° Northwest 413 475 36,000 360 Climbing Miami Center
10:21AM 27.4906 -81.6442 326° Northwest 413 475 36,000  Level Miami Center
10:22AM 27.5903 -81.7161 327° Northwest 421 484 36,000  Level Miami Center
10:24AM 27.7975 -81.8650 328° Northwest 434 499 36,000  Level Jacksonville Center
10:25AM 27.9003 -81.9439 326° Northwest 445 512 36,000  Level Jacksonville Center
10:26AM 27.9989 -82.0206 326° Northwest 439 505 36,000  Level Jacksonville Center
10:27AM 28.0911 -82.1067 321° Northwest 433 498 36,000 -60 Level Jacksonville Center
10:28AM 28.1856 -82.1908 322° Northwest 433 498 35,900 -1,020 Descending Jacksonville Center
10:29AM 28.2819 -82.2797 321° Northwest 433 498 34,000 -1,980 Descending Jacksonville Center
10:30AM 28.3783 -82.3642 322° Northwest 442 509 32,000 -2,040 Descending Jacksonville Center
10:31AM 28.4642 -82.4417 322° Northwest 442 509 30,000 -2,040 Descending Jacksonville Center
10:32AM 28.5606 -82.5286 322° Northwest 442 509 28,000 -1,620 Descending Jacksonville Center
10:33AM 28.6608 -82.6158 323° Northwest 447 514 26,800 -1,320 Descending Jacksonville Center
10:34AM 28.7569 -82.7031 322° Northwest 441 507 25,400 -1,800 Descending Jacksonville Center
10:35AM 28.8531 -82.7931 321° Northwest 446 513 23,300 -1,740 Descending Jacksonville Center
10:36AM 28.9472 -82.8783 322° Northwest 446 513 22,000 -660 Descending Jacksonville Center
10:37AM 29.0389 -82.9614 322° Northwest 440 506 22,000  Level Jacksonville Center
10:38AM 29.1308 -83.0469 321° Northwest 435 501 22,000  Level Jacksonville Center
10:39AM 29.2225 -83.1306 321° Northwest 430 495 22,000  Level Jacksonville Center
10:40AM 29.3142 -83.2164 321° Northwest 425 489 22,000  Level Jacksonville Center
10:41AM 29.4078 -83.3025 321° Northwest 425 489 22,000 -360 Level Jacksonville Center
10:42AM 29.5014 -83.3864 322° Northwest 425 489 21,300 -1,440 Descending Jacksonville Center
10:43AM 29.5931 -83.4731 321° Northwest 425 489 19,200 -1,980 Descending Jacksonville Center
10:44AM 29.6803 -83.5500 323° Northwest 419 482 17,400 -1,980 Descending Jacksonville Center
10:45AM 29.7653 -83.6319 320° Northwest 414 476 15,300 -2,040 Descending Jacksonville Center
10:46AM 29.8717 -83.6542 350° North 352 405 13,400 -1,980 Descending Jacksonville Center
10:47AM 29.9700 -83.6333 10° North 343 395 11,400 -1,740 Descending Jacksonville Center
10:48AM 30.0619 -83.6389 357° North 338 389 10,000 -720 Descending Jacksonville Center
10:49AM 30.1367 -83.7092 321° Northwest 322 371 10,000  Level Jacksonville Center
10:50AM 30.2111 -83.7917 316° Northwest 341 392 10,000  Level Jacksonville Center
10:51AM 30.2689 -83.8883 305° West 363 418 10,000 -720 Level Jacksonville Center
10:52AM 30.2617 -83.9892 265° West 313 360 8,600 -2,100 Descending Jacksonville Center
10:53AM 30.2464 -84.0781 259° West 293 337 5,900 -2,760 Descending Jacksonville Center
10:54AM 30.2267 -84.1644 255° West 287 330 3,100 -1,980 Descending Jacksonville Center
10:55AM 30.2133 -84.2411 259° West 282 325 2,000 -600 Descending Jacksonville Center
10:56AM 30.2022 -84.3083 259° West 253 291 2,000  Level Jacksonville Center
10:58AM 30.3556 -84.3360 351° North  Level FlightAware Approximate
11:05AM 30.3833 -84.3500 180° South  Level FlightAware Approximate
11:06AM 30.3967 -84.3509 180° South  Level Estimated
11:07AM 30.3967 -84.3509 180° South  Level Estimated
11:08AM 30.3967 -84.3509 180° South  Level Estimated